sensor_id;sensor_type;location;lat;lon;timestamp;P1;durP1;ratioP1;P2;durP2;ratioP2
19278;SDS011;9773;47.062;15.446;2024-02-21T00:02:19;9.37;;;5.83;;
19278;SDS011;9773;47.062;15.446;2024-02-21T00:04:45;9.17;;;5.87;;
19278;SDS011;9773;47.062;15.446;2024-02-21T00:07:10;8.63;;;5.87;;
19278;SDS011;9773;47.062;15.446;2024-02-21T00:09:36;9.90;;;6.57;;
19278;SDS011;9773;47.062;15.446;2024-02-21T00:12:02;9.50;;;5.73;;
19278;SDS011;9773;47.062;15.446;2024-02-21T00:14:28;8.63;;;5.73;;
19278;SDS011;9773;47.062;15.446;2024-02-21T00:16:54;7.60;;;5.30;;
19278;SDS011;9773;47.062;15.446;2024-02-21T00:19:19;9.17;;;6.17;;
19278;SDS011;9773;47.062;15.446;2024-02-21T00:21:46;8.27;;;5.80;;
19278;SDS011;9773;47.062;15.446;2024-02-21T00:24:11;6.27;;;5.67;;
19278;SDS011;9773;47.062;15.446;2024-02-21T00:26:37;6.83;;;5.13;;
19278;SDS011;9773;47.062;15.446;2024-02-21T00:29:03;6.93;;;5.87;;
19278;SDS011;9773;47.062;15.446;2024-02-21T00:31:29;9.63;;;5.90;;
19278;SDS011;9773;47.062;15.446;2024-02-21T00:33:55;5.50;;;4.83;;
19278;SDS011;9773;47.062;15.446;2024-02-21T00:36:21;7.93;;;6.00;;
19278;SDS011;9773;47.062;15.446;2024-02-21T00:38:46;10.60;;;6.40;;
19278;SDS011;9773;47.062;15.446;2024-02-21T00:41:12;8.27;;;5.60;;
19278;SDS011;9773;47.062;15.446;2024-02-21T00:43:38;6.80;;;6.10;;
19278;SDS011;9773;47.062;15.446;2024-02-21T00:46:05;7.10;;;5.30;;
19278;SDS011;9773;47.062;15.446;2024-02-21T00:48:32;5.37;;;4.87;;
19278;SDS011;9773;47.062;15.446;2024-02-21T00:50:59;7.50;;;5.27;;
19278;SDS011;9773;47.062;15.446;2024-02-21T00:53:24;7.27;;;5.47;;
19278;SDS011;9773;47.062;15.446;2024-02-21T00:55:50;7.13;;;4.90;;
19278;SDS011;9773;47.062;15.446;2024-02-21T00:58:16;7.47;;;4.90;;
19278;SDS011;9773;47.062;15.446;2024-02-21T01:00:41;5.67;;;4.83;;
19278;SDS011;9773;47.062;15.446;2024-02-21T01:03:07;6.97;;;5.13;;
19278;SDS011;9773;47.062;15.446;2024-02-21T01:05:33;7.60;;;5.67;;
19278;SDS011;9773;47.062;15.446;2024-02-21T01:07:59;6.17;;;4.80;;
19278;SDS011;9773;47.062;15.446;2024-02-21T01:10:25;7.40;;;5.23;;
19278;SDS011;9773;47.062;15.446;2024-02-21T01:12:51;6.60;;;5.30;;
19278;SDS011;9773;47.062;15.446;2024-02-21T01:15:16;5.33;;;4.83;;
19278;SDS011;9773;47.062;15.446;2024-02-21T01:17:42;6.57;;;5.60;;
19278;SDS011;9773;47.062;15.446;2024-02-21T01:20:08;9.40;;;4.93;;
19278;SDS011;9773;47.062;15.446;2024-02-21T01:22:34;6.90;;;4.60;;
19278;SDS011;9773;47.062;15.446;2024-02-21T01:25:00;5.63;;;4.90;;
19278;SDS011;9773;47.062;15.446;2024-02-21T01:27:25;6.33;;;4.97;;
19278;SDS011;9773;47.062;15.446;2024-02-21T01:29:51;5.10;;;4.60;;
19278;SDS011;9773;47.062;15.446;2024-02-21T01:32:18;7.33;;;4.97;;
19278;SDS011;9773;47.062;15.446;2024-02-21T01:34:44;7.70;;;5.10;;
19278;SDS011;9773;47.062;15.446;2024-02-21T01:37:09;6.33;;;5.37;;
19278;SDS011;9773;47.062;15.446;2024-02-21T01:39:35;6.87;;;5.43;;
19278;SDS011;9773;47.062;15.446;2024-02-21T01:42:01;5.93;;;5.03;;
19278;SDS011;9773;47.062;15.446;2024-02-21T01:44:26;7.43;;;5.00;;
19278;SDS011;9773;47.062;15.446;2024-02-21T01:46:52;7.73;;;4.90;;
19278;SDS011;9773;47.062;15.446;2024-02-21T01:49:19;7.77;;;5.20;;
19278;SDS011;9773;47.062;15.446;2024-02-21T01:51:47;7.80;;;5.03;;
19278;SDS011;9773;47.062;15.446;2024-02-21T01:54:13;5.10;;;4.60;;
19278;SDS011;9773;47.062;15.446;2024-02-21T01:56:43;5.13;;;4.60;;
19278;SDS011;9773;47.062;15.446;2024-02-21T01:59:10;5.87;;;5.13;;
19278;SDS011;9773;47.062;15.446;2024-02-21T02:01:37;4.47;;;4.10;;
19278;SDS011;9773;47.062;15.446;2024-02-21T02:04:03;4.67;;;4.20;;
19278;SDS011;9773;47.062;15.446;2024-02-21T02:06:30;5.27;;;4.77;;
19278;SDS011;9773;47.062;15.446;2024-02-21T02:08:56;5.80;;;3.90;;
19278;SDS011;9773;47.062;15.446;2024-02-21T02:11:22;4.93;;;3.83;;
19278;SDS011;9773;47.062;15.446;2024-02-21T02:13:48;5.30;;;4.13;;
19278;SDS011;9773;47.062;15.446;2024-02-21T02:16:14;5.20;;;3.67;;
19278;SDS011;9773;47.062;15.446;2024-02-21T02:18:40;5.17;;;4.00;;
19278;SDS011;9773;47.062;15.446;2024-02-21T02:21:10;6.50;;;4.03;;
19278;SDS011;9773;47.062;15.446;2024-02-21T02:23:50;9.00;;;4.50;;
19278;SDS011;9773;47.062;15.446;2024-02-21T02:26:16;6.73;;;4.63;;
19278;SDS011;9773;47.062;15.446;2024-02-21T02:28:42;6.00;;;4.40;;
19278;SDS011;9773;47.062;15.446;2024-02-21T02:31:07;6.13;;;4.50;;
19278;SDS011;9773;47.062;15.446;2024-02-21T02:33:33;5.50;;;4.37;;
19278;SDS011;9773;47.062;15.446;2024-02-21T02:35:59;5.07;;;4.40;;
19278;SDS011;9773;47.062;15.446;2024-02-21T02:38:25;4.20;;;3.80;;
19278;SDS011;9773;47.062;15.446;2024-02-21T02:40:51;6.53;;;4.13;;
19278;SDS011;9773;47.062;15.446;2024-02-21T02:43:16;5.97;;;4.77;;
19278;SDS011;9773;47.062;15.446;2024-02-21T02:45:42;6.17;;;4.70;;
19278;SDS011;9773;47.062;15.446;2024-02-21T02:48:08;6.37;;;4.43;;
19278;SDS011;9773;47.062;15.446;2024-02-21T02:50:34;5.03;;;4.53;;
19278;SDS011;9773;47.062;15.446;2024-02-21T02:52:59;4.90;;;4.23;;
19278;SDS011;9773;47.062;15.446;2024-02-21T02:55:25;5.43;;;4.27;;
19278;SDS011;9773;47.062;15.446;2024-02-21T02:57:51;6.00;;;4.83;;
19278;SDS011;9773;47.062;15.446;2024-02-21T03:00:17;4.83;;;4.30;;
19278;SDS011;9773;47.062;15.446;2024-02-21T03:02:44;4.77;;;4.10;;
19278;SDS011;9773;47.062;15.446;2024-02-21T03:05:14;4.17;;;3.77;;
19278;SDS011;9773;47.062;15.446;2024-02-21T03:07:41;3.60;;;3.30;;
19278;SDS011;9773;47.062;15.446;2024-02-21T03:10:07;4.00;;;3.60;;
19278;SDS011;9773;47.062;15.446;2024-02-21T03:12:34;4.07;;;3.63;;
19278;SDS011;9773;47.062;15.446;2024-02-21T03:14:59;4.00;;;3.70;;
19278;SDS011;9773;47.062;15.446;2024-02-21T03:17:25;3.83;;;3.40;;
19278;SDS011;9773;47.062;15.446;2024-02-21T03:19:54;5.83;;;4.00;;
19278;SDS011;9773;47.062;15.446;2024-02-21T03:22:23;3.80;;;3.50;;
19278;SDS011;9773;47.062;15.446;2024-02-21T03:24:49;3.77;;;3.47;;
19278;SDS011;9773;47.062;15.446;2024-02-21T03:27:15;5.13;;;3.67;;
19278;SDS011;9773;47.062;15.446;2024-02-21T03:29:41;3.83;;;3.50;;
19278;SDS011;9773;47.062;15.446;2024-02-21T03:32:06;4.43;;;3.50;;
19278;SDS011;9773;47.062;15.446;2024-02-21T03:34:32;4.93;;;3.50;;
19278;SDS011;9773;47.062;15.446;2024-02-21T03:36:58;3.80;;;3.40;;
19278;SDS011;9773;47.062;15.446;2024-02-21T03:39:24;4.27;;;3.87;;
19278;SDS011;9773;47.062;15.446;2024-02-21T03:41:50;3.50;;;3.23;;
19278;SDS011;9773;47.062;15.446;2024-02-21T03:44:16;4.27;;;3.53;;
19278;SDS011;9773;47.062;15.446;2024-02-21T03:46:42;4.33;;;3.67;;
19278;SDS011;9773;47.062;15.446;2024-02-21T03:49:08;3.63;;;3.33;;
19278;SDS011;9773;47.062;15.446;2024-02-21T03:51:33;4.23;;;3.60;;
19278;SDS011;9773;47.062;15.446;2024-02-21T03:54:00;4.47;;;3.83;;
19278;SDS011;9773;47.062;15.446;2024-02-21T03:56:26;4.83;;;3.47;;
19278;SDS011;9773;47.062;15.446;2024-02-21T03:58:51;3.37;;;3.07;;
19278;SDS011;9773;47.062;15.446;2024-02-21T04:01:17;4.07;;;3.47;;
19278;SDS011;9773;47.062;15.446;2024-02-21T04:03:43;4.13;;;3.50;;
19278;SDS011;9773;47.062;15.446;2024-02-21T04:06:09;3.80;;;3.40;;
19278;SDS011;9773;47.062;15.446;2024-02-21T04:08:35;3.50;;;3.20;;
19278;SDS011;9773;47.062;15.446;2024-02-21T04:11:01;3.57;;;3.27;;
19278;SDS011;9773;47.062;15.446;2024-02-21T04:13:27;4.17;;;3.23;;
19278;SDS011;9773;47.062;15.446;2024-02-21T04:15:53;3.40;;;3.10;;
19278;SDS011;9773;47.062;15.446;2024-02-21T04:18:19;4.83;;;3.23;;
19278;SDS011;9773;47.062;15.446;2024-02-21T04:20:45;3.57;;;3.13;;
19278;SDS011;9773;47.062;15.446;2024-02-21T04:23:10;5.50;;;2.90;;
19278;SDS011;9773;47.062;15.446;2024-02-21T04:25:36;5.23;;;3.30;;
19278;SDS011;9773;47.062;15.446;2024-02-21T04:28:02;4.43;;;3.50;;
19278;SDS011;9773;47.062;15.446;2024-02-21T04:30:28;3.47;;;3.17;;
19278;SDS011;9773;47.062;15.446;2024-02-21T04:32:54;3.93;;;3.10;;
19278;SDS011;9773;47.062;15.446;2024-02-21T04:35:20;4.50;;;3.23;;
19278;SDS011;9773;47.062;15.446;2024-02-21T04:37:46;3.37;;;3.07;;
19278;SDS011;9773;47.062;15.446;2024-02-21T04:40:11;4.50;;;3.43;;
19278;SDS011;9773;47.062;15.446;2024-02-21T04:42:40;3.53;;;3.23;;
19278;SDS011;9773;47.062;15.446;2024-02-21T04:45:06;7.63;;;3.20;;
19278;SDS011;9773;47.062;15.446;2024-02-21T04:47:32;3.40;;;3.10;;
19278;SDS011;9773;47.062;15.446;2024-02-21T04:49:57;4.47;;;3.23;;
19278;SDS011;9773;47.062;15.446;2024-02-21T04:52:23;3.97;;;3.43;;
19278;SDS011;9773;47.062;15.446;2024-02-21T04:54:49;3.77;;;2.90;;
19278;SDS011;9773;47.062;15.446;2024-02-21T04:57:15;3.73;;;3.43;;
19278;SDS011;9773;47.062;15.446;2024-02-21T04:59:45;4.10;;;3.30;;
19278;SDS011;9773;47.062;15.446;2024-02-21T05:02:14;4.77;;;3.37;;
19278;SDS011;9773;47.062;15.446;2024-02-21T05:04:39;6.20;;;4.00;;
19278;SDS011;9773;47.062;15.446;2024-02-21T05:07:09;5.00;;;3.43;;
19278;SDS011;9773;47.062;15.446;2024-02-21T05:09:45;4.63;;;3.70;;
19278;SDS011;9773;47.062;15.446;2024-02-21T05:12:11;3.70;;;3.37;;
19278;SDS011;9773;47.062;15.446;2024-02-21T05:14:37;3.67;;;3.30;;
19278;SDS011;9773;47.062;15.446;2024-02-21T05:17:03;4.43;;;3.20;;
19278;SDS011;9773;47.062;15.446;2024-02-21T05:19:29;6.90;;;3.20;;
19278;SDS011;9773;47.062;15.446;2024-02-21T05:21:55;4.03;;;3.33;;
19278;SDS011;9773;47.062;15.446;2024-02-21T05:24:21;6.17;;;3.33;;
19278;SDS011;9773;47.062;15.446;2024-02-21T05:26:46;3.47;;;3.17;;
19278;SDS011;9773;47.062;15.446;2024-02-21T05:29:13;3.57;;;3.27;;
19278;SDS011;9773;47.062;15.446;2024-02-21T05:34:17;5.03;;;3.40;;
19278;SDS011;9773;47.062;15.446;2024-02-21T05:36:43;3.33;;;2.97;;
19278;SDS011;9773;47.062;15.446;2024-02-21T05:39:09;4.17;;;3.40;;
19278;SDS011;9773;47.062;15.446;2024-02-21T05:41:34;5.30;;;3.23;;
19278;SDS011;9773;47.062;15.446;2024-02-21T05:44:00;3.90;;;3.53;;
19278;SDS011;9773;47.062;15.446;2024-02-21T05:46:26;5.20;;;3.90;;
19278;SDS011;9773;47.062;15.446;2024-02-21T05:48:52;3.80;;;3.40;;
19278;SDS011;9773;47.062;15.446;2024-02-21T05:51:18;7.30;;;3.83;;
19278;SDS011;9773;47.062;15.446;2024-02-21T05:53:43;7.87;;;3.37;;
19278;SDS011;9773;47.062;15.446;2024-02-21T05:56:12;6.17;;;3.53;;
19278;SDS011;9773;47.062;15.446;2024-02-21T05:58:39;4.80;;;3.90;;
19278;SDS011;9773;47.062;15.446;2024-02-21T06:01:05;3.60;;;3.30;;
19278;SDS011;9773;47.062;15.446;2024-02-21T06:03:33;5.17;;;3.53;;
19278;SDS011;9773;47.062;15.446;2024-02-21T06:05:59;3.80;;;3.50;;
19278;SDS011;9773;47.062;15.446;2024-02-21T06:08:25;6.93;;;4.13;;
19278;SDS011;9773;47.062;15.446;2024-02-21T06:10:51;6.77;;;3.77;;
19278;SDS011;9773;47.062;15.446;2024-02-21T06:13:19;7.10;;;4.10;;
19278;SDS011;9773;47.062;15.446;2024-02-21T06:15:46;4.60;;;3.43;;
19278;SDS011;9773;47.062;15.446;2024-02-21T06:18:12;4.57;;;3.80;;
19278;SDS011;9773;47.062;15.446;2024-02-21T06:20:38;3.67;;;3.37;;
19278;SDS011;9773;47.062;15.446;2024-02-21T06:23:05;5.40;;;3.10;;
19278;SDS011;9773;47.062;15.446;2024-02-21T06:25:31;5.40;;;3.63;;
19278;SDS011;9773;47.062;15.446;2024-02-21T06:27:57;3.80;;;3.13;;
19278;SDS011;9773;47.062;15.446;2024-02-21T06:30:23;4.73;;;3.80;;
19278;SDS011;9773;47.062;15.446;2024-02-21T06:32:49;4.20;;;3.53;;
19278;SDS011;9773;47.062;15.446;2024-02-21T06:35:14;5.77;;;3.90;;
19278;SDS011;9773;47.062;15.446;2024-02-21T06:37:40;4.87;;;4.33;;
19278;SDS011;9773;47.062;15.446;2024-02-21T06:40:06;4.53;;;3.30;;
19278;SDS011;9773;47.062;15.446;2024-02-21T06:42:32;4.40;;;4.00;;
19278;SDS011;9773;47.062;15.446;2024-02-21T06:44:58;5.70;;;3.87;;
19278;SDS011;9773;47.062;15.446;2024-02-21T06:47:24;5.37;;;3.73;;
19278;SDS011;9773;47.062;15.446;2024-02-21T06:49:50;6.77;;;4.03;;
19278;SDS011;9773;47.062;15.446;2024-02-21T06:52:19;5.50;;;3.60;;
19278;SDS011;9773;47.062;15.446;2024-02-21T06:54:46;4.03;;;3.63;;
19278;SDS011;9773;47.062;15.446;2024-02-21T06:57:14;3.50;;;3.30;;
19278;SDS011;9773;47.062;15.446;2024-02-21T06:59:41;8.23;;;3.67;;
19278;SDS011;9773;47.062;15.446;2024-02-21T07:02:07;3.87;;;3.47;;
19278;SDS011;9773;47.062;15.446;2024-02-21T07:04:33;5.37;;;3.60;;
19278;SDS011;9773;47.062;15.446;2024-02-21T07:06:59;11.00;;;3.90;;
19278;SDS011;9773;47.062;15.446;2024-02-21T07:09:25;5.57;;;3.57;;
19278;SDS011;9773;47.062;15.446;2024-02-21T07:11:51;5.40;;;3.53;;
19278;SDS011;9773;47.062;15.446;2024-02-21T07:15:57;8.67;;;3.73;;
19278;SDS011;9773;47.062;15.446;2024-02-21T07:18:23;10.03;;;4.23;;
19278;SDS011;9773;47.062;15.446;2024-02-21T07:20:50;8.37;;;3.87;;
19278;SDS011;9773;47.062;15.446;2024-02-21T07:23:17;17.07;;;3.70;;
19278;SDS011;9773;47.062;15.446;2024-02-21T07:25:43;13.40;;;3.90;;
19278;SDS011;9773;47.062;15.446;2024-02-21T07:28:09;17.37;;;4.10;;
19278;SDS011;9773;47.062;15.446;2024-02-21T07:30:35;7.07;;;3.73;;
19278;SDS011;9773;47.062;15.446;2024-02-21T07:33:01;12.13;;;3.97;;
19278;SDS011;9773;47.062;15.446;2024-02-21T07:35:27;12.77;;;4.27;;
19278;SDS011;9773;47.062;15.446;2024-02-21T07:37:52;10.00;;;4.13;;
19278;SDS011;9773;47.062;15.446;2024-02-21T07:40:18;15.67;;;3.73;;
19278;SDS011;9773;47.062;15.446;2024-02-21T07:42:44;7.83;;;3.57;;
19278;SDS011;9773;47.062;15.446;2024-02-21T07:45:10;6.20;;;3.53;;
19278;SDS011;9773;47.062;15.446;2024-02-21T07:47:36;8.53;;;3.63;;
19278;SDS011;9773;47.062;15.446;2024-02-21T07:50:03;7.63;;;3.80;;
19278;SDS011;9773;47.062;15.446;2024-02-21T07:52:29;8.00;;;3.70;;
19278;SDS011;9773;47.062;15.446;2024-02-21T07:54:55;5.40;;;3.67;;
19278;SDS011;9773;47.062;15.446;2024-02-21T07:57:20;17.40;;;4.07;;
19278;SDS011;9773;47.062;15.446;2024-02-21T07:59:47;9.90;;;3.00;;
19278;SDS011;9773;47.062;15.446;2024-02-21T08:02:13;11.00;;;3.80;;
19278;SDS011;9773;47.062;15.446;2024-02-21T08:04:40;16.07;;;4.43;;
19278;SDS011;9773;47.062;15.446;2024-02-21T08:07:05;12.07;;;4.30;;
19278;SDS011;9773;47.062;15.446;2024-02-21T08:09:31;12.30;;;3.73;;
19278;SDS011;9773;47.062;15.446;2024-02-21T08:11:57;10.30;;;4.00;;
19278;SDS011;9773;47.062;15.446;2024-02-21T08:14:23;9.67;;;3.90;;
19278;SDS011;9773;47.062;15.446;2024-02-21T08:16:50;11.17;;;3.27;;
19278;SDS011;9773;47.062;15.446;2024-02-21T08:19:18;9.53;;;4.50;;
19278;SDS011;9773;47.062;15.446;2024-02-21T08:21:44;6.43;;;3.40;;
19278;SDS011;9773;47.062;15.446;2024-02-21T08:24:12;6.97;;;3.53;;
19278;SDS011;9773;47.062;15.446;2024-02-21T08:26:41;15.20;;;3.97;;
19278;SDS011;9773;47.062;15.446;2024-02-21T08:29:07;9.93;;;2.93;;
19278;SDS011;9773;47.062;15.446;2024-02-21T08:31:33;5.20;;;2.93;;
19278;SDS011;9773;47.062;15.446;2024-02-21T08:34:02;6.87;;;3.10;;
19278;SDS011;9773;47.062;15.446;2024-02-21T08:36:32;8.27;;;2.73;;
19278;SDS011;9773;47.062;15.446;2024-02-21T08:38:59;7.90;;;3.00;;
19278;SDS011;9773;47.062;15.446;2024-02-21T08:41:26;5.90;;;2.70;;
19278;SDS011;9773;47.062;15.446;2024-02-21T08:43:52;5.83;;;2.47;;
19278;SDS011;9773;47.062;15.446;2024-02-21T08:46:22;4.67;;;3.13;;
19278;SDS011;9773;47.062;15.446;2024-02-21T08:48:49;4.40;;;3.00;;
19278;SDS011;9773;47.062;15.446;2024-02-21T08:51:18;6.63;;;3.03;;
19278;SDS011;9773;47.062;15.446;2024-02-21T08:53:45;7.37;;;3.50;;
19278;SDS011;9773;47.062;15.446;2024-02-21T08:56:11;3.50;;;3.00;;
19278;SDS011;9773;47.062;15.446;2024-02-21T08:58:38;7.93;;;2.77;;
19278;SDS011;9773;47.062;15.446;2024-02-21T09:01:05;6.33;;;3.43;;
19278;SDS011;9773;47.062;15.446;2024-02-21T09:03:35;4.87;;;3.40;;
19278;SDS011;9773;47.062;15.446;2024-02-21T09:06:05;7.33;;;4.00;;
19278;SDS011;9773;47.062;15.446;2024-02-21T09:08:31;5.60;;;3.93;;
19278;SDS011;9773;47.062;15.446;2024-02-21T09:10:57;15.60;;;3.83;;
19278;SDS011;9773;47.062;15.446;2024-02-21T09:13:24;8.33;;;3.90;;
19278;SDS011;9773;47.062;15.446;2024-02-21T09:15:50;5.17;;;3.60;;
19278;SDS011;9773;47.062;15.446;2024-02-21T09:18:15;4.40;;;3.40;;
19278;SDS011;9773;47.062;15.446;2024-02-21T09:20:42;4.77;;;3.10;;
19278;SDS011;9773;47.062;15.446;2024-02-21T09:23:08;8.37;;;3.30;;
19278;SDS011;9773;47.062;15.446;2024-02-21T09:25:34;8.63;;;3.60;;
19278;SDS011;9773;47.062;15.446;2024-02-21T09:28:01;4.37;;;3.20;;
19278;SDS011;9773;47.062;15.446;2024-02-21T09:30:27;3.97;;;3.10;;
19278;SDS011;9773;47.062;15.446;2024-02-21T09:32:53;6.17;;;2.87;;
19278;SDS011;9773;47.062;15.446;2024-02-21T09:35:19;5.43;;;3.17;;
19278;SDS011;9773;47.062;15.446;2024-02-21T09:37:48;2.43;;;2.23;;
19278;SDS011;9773;47.062;15.446;2024-02-21T09:40:15;3.50;;;2.30;;
19278;SDS011;9773;47.062;15.446;2024-02-21T09:42:43;2.97;;;2.70;;
19278;SDS011;9773;47.062;15.446;2024-02-21T09:47:52;3.07;;;2.77;;
19278;SDS011;9773;47.062;15.446;2024-02-21T09:50:38;4.40;;;2.80;;
19278;SDS011;9773;47.062;15.446;2024-02-21T09:53:09;3.43;;;3.03;;
19278;SDS011;9773;47.062;15.446;2024-02-21T09:55:37;4.47;;;3.20;;
19278;SDS011;9773;47.062;15.446;2024-02-21T09:58:05;3.27;;;2.97;;
19278;SDS011;9773;47.062;15.446;2024-02-21T10:00:32;4.77;;;3.10;;
19278;SDS011;9773;47.062;15.446;2024-02-21T10:02:58;3.13;;;2.77;;
19278;SDS011;9773;47.062;15.446;2024-02-21T10:05:24;6.53;;;2.83;;
19278;SDS011;9773;47.062;15.446;2024-02-21T10:07:50;3.67;;;2.70;;
19278;SDS011;9773;47.062;15.446;2024-02-21T10:10:17;3.90;;;2.93;;
19278;SDS011;9773;47.062;15.446;2024-02-21T10:12:51;6.50;;;2.63;;
19278;SDS011;9773;47.062;15.446;2024-02-21T10:15:21;3.20;;;2.90;;
19278;SDS011;9773;47.062;15.446;2024-02-21T10:17:59;2.40;;;2.20;;
19278;SDS011;9773;47.062;15.446;2024-02-21T10:20:25;4.13;;;2.50;;
19278;SDS011;9773;47.062;15.446;2024-02-21T10:23:04;2.70;;;2.20;;
19278;SDS011;9773;47.062;15.446;2024-02-21T10:25:34;5.83;;;2.80;;
19278;SDS011;9773;47.062;15.446;2024-02-21T10:28:03;4.07;;;2.53;;
19278;SDS011;9773;47.062;15.446;2024-02-21T10:30:29;2.63;;;2.43;;
19278;SDS011;9773;47.062;15.446;2024-02-21T10:32:55;4.77;;;2.33;;
19278;SDS011;9773;47.062;15.446;2024-02-21T10:35:30;8.93;;;2.87;;
19278;SDS011;9773;47.062;15.446;2024-02-21T10:37:57;3.27;;;2.97;;
19278;SDS011;9773;47.062;15.446;2024-02-21T10:40:24;4.87;;;2.87;;
19278;SDS011;9773;47.062;15.446;2024-02-21T10:42:56;5.37;;;2.67;;
19278;SDS011;9773;47.062;15.446;2024-02-21T10:45:28;3.17;;;2.60;;
19278;SDS011;9773;47.062;15.446;2024-02-21T10:47:55;5.20;;;2.77;;
19278;SDS011;9773;47.062;15.446;2024-02-21T10:50:27;3.77;;;2.67;;
19278;SDS011;9773;47.062;15.446;2024-02-21T10:53:02;2.47;;;2.27;;
19278;SDS011;9773;47.062;15.446;2024-02-21T10:55:38;4.07;;;2.50;;
19278;SDS011;9773;47.062;15.446;2024-02-21T10:58:09;4.57;;;2.47;;
19278;SDS011;9773;47.062;15.446;2024-02-21T11:00:36;2.80;;;2.50;;
19278;SDS011;9773;47.062;15.446;2024-02-21T11:03:02;3.47;;;2.57;;
19278;SDS011;9773;47.062;15.446;2024-02-21T11:05:29;3.60;;;2.77;;
19278;SDS011;9773;47.062;15.446;2024-02-21T11:07:57;2.73;;;2.53;;
19278;SDS011;9773;47.062;15.446;2024-02-21T11:10:23;4.17;;;2.37;;
19278;SDS011;9773;47.062;15.446;2024-02-21T11:12:53;3.57;;;2.73;;
19278;SDS011;9773;47.062;15.446;2024-02-21T11:15:30;3.20;;;2.37;;
19278;SDS011;9773;47.062;15.446;2024-02-21T11:17:55;3.00;;;2.43;;
19278;SDS011;9773;47.062;15.446;2024-02-21T11:20:31;3.40;;;2.40;;
19278;SDS011;9773;47.062;15.446;2024-02-21T11:23:01;2.80;;;2.60;;
19278;SDS011;9773;47.062;15.446;2024-02-21T11:25:27;2.93;;;2.63;;
19278;SDS011;9773;47.062;15.446;2024-02-21T11:27:59;2.97;;;2.37;;
19278;SDS011;9773;47.062;15.446;2024-02-21T11:30:26;3.90;;;2.80;;
19278;SDS011;9773;47.062;15.446;2024-02-21T11:33:05;2.20;;;1.97;;
19278;SDS011;9773;47.062;15.446;2024-02-21T11:35:32;2.63;;;2.43;;
19278;SDS011;9773;47.062;15.446;2024-02-21T11:38:11;2.67;;;2.47;;
19278;SDS011;9773;47.062;15.446;2024-02-21T11:40:41;5.23;;;2.70;;
19278;SDS011;9773;47.062;15.446;2024-02-21T11:43:11;2.80;;;2.40;;
19278;SDS011;9773;47.062;15.446;2024-02-21T11:45:37;2.27;;;1.93;;
19278;SDS011;9773;47.062;15.446;2024-02-21T11:48:05;2.30;;;2.10;;
19278;SDS011;9773;47.062;15.446;2024-02-21T11:50:31;2.53;;;2.30;;
19278;SDS011;9773;47.062;15.446;2024-02-21T11:52:57;2.20;;;2.10;;
19278;SDS011;9773;47.062;15.446;2024-02-21T11:55:23;3.10;;;2.10;;
19278;SDS011;9773;47.062;15.446;2024-02-21T11:57:49;2.10;;;2.00;;
19278;SDS011;9773;47.062;15.446;2024-02-21T12:00:16;4.03;;;3.60;;
19278;SDS011;9773;47.062;15.446;2024-02-21T12:02:43;2.60;;;2.40;;
19278;SDS011;9773;47.062;15.446;2024-02-21T12:05:10;3.17;;;2.43;;
19278;SDS011;9773;47.062;15.446;2024-02-21T12:07:36;3.87;;;2.07;;
19278;SDS011;9773;47.062;15.446;2024-02-21T12:10:07;4.10;;;1.97;;
19278;SDS011;9773;47.062;15.446;2024-02-21T12:12:35;10.50;;;1.97;;
19278;SDS011;9773;47.062;15.446;2024-02-21T12:15:03;2.23;;;1.90;;
19278;SDS011;9773;47.062;15.446;2024-02-21T12:17:30;4.47;;;3.53;;
19278;SDS011;9773;47.062;15.446;2024-02-21T12:20:00;4.23;;;2.97;;
19278;SDS011;9773;47.062;15.446;2024-02-21T12:22:29;1.80;;;1.70;;
19278;SDS011;9773;47.062;15.446;2024-02-21T12:24:57;2.13;;;1.80;;
19278;SDS011;9773;47.062;15.446;2024-02-21T12:27:24;4.50;;;1.67;;
19278;SDS011;9773;47.062;15.446;2024-02-21T12:29:51;2.20;;;2.00;;
19278;SDS011;9773;47.062;15.446;2024-02-21T12:32:17;1.87;;;1.60;;
19278;SDS011;9773;47.062;15.446;2024-02-21T12:34:43;2.53;;;2.33;;
19278;SDS011;9773;47.062;15.446;2024-02-21T12:37:08;6.23;;;2.63;;
19278;SDS011;9773;47.062;15.446;2024-02-21T12:39:37;2.33;;;2.00;;
19278;SDS011;9773;47.062;15.446;2024-02-21T12:42:03;2.53;;;1.70;;
19278;SDS011;9773;47.062;15.446;2024-02-21T12:44:29;1.73;;;1.63;;
19278;SDS011;9773;47.062;15.446;2024-02-21T12:46:55;2.20;;;1.70;;
19278;SDS011;9773;47.062;15.446;2024-02-21T12:49:21;1.97;;;1.87;;
19278;SDS011;9773;47.062;15.446;2024-02-21T12:51:46;1.63;;;1.53;;
19278;SDS011;9773;47.062;15.446;2024-02-21T12:54:12;1.80;;;1.70;;
19278;SDS011;9773;47.062;15.446;2024-02-21T12:56:38;2.40;;;1.87;;
19278;SDS011;9773;47.062;15.446;2024-02-21T12:59:05;1.80;;;1.63;;
19278;SDS011;9773;47.062;15.446;2024-02-21T13:01:34;1.80;;;1.43;;
19278;SDS011;9773;47.062;15.446;2024-02-21T13:04:00;2.33;;;1.60;;
19278;SDS011;9773;47.062;15.446;2024-02-21T13:06:27;2.50;;;1.50;;
19278;SDS011;9773;47.062;15.446;2024-02-21T13:08:53;1.80;;;1.70;;
19278;SDS011;9773;47.062;15.446;2024-02-21T13:11:18;1.67;;;1.57;;
19278;SDS011;9773;47.062;15.446;2024-02-21T13:13:44;1.73;;;1.63;;
19278;SDS011;9773;47.062;15.446;2024-02-21T13:16:10;1.73;;;1.63;;
19278;SDS011;9773;47.062;15.446;2024-02-21T13:18:36;1.60;;;1.60;;
19278;SDS011;9773;47.062;15.446;2024-02-21T13:21:07;2.00;;;1.50;;
19278;SDS011;9773;47.062;15.446;2024-02-21T13:23:33;1.80;;;1.70;;
19278;SDS011;9773;47.062;15.446;2024-02-21T13:25:59;2.27;;;1.40;;
19278;SDS011;9773;47.062;15.446;2024-02-21T13:28:25;1.70;;;1.60;;
19278;SDS011;9773;47.062;15.446;2024-02-21T13:30:50;1.40;;;1.40;;
19278;SDS011;9773;47.062;15.446;2024-02-21T13:33:16;1.40;;;1.40;;
19278;SDS011;9773;47.062;15.446;2024-02-21T13:35:42;1.50;;;1.40;;
19278;SDS011;9773;47.062;15.446;2024-02-21T13:38:08;2.00;;;1.50;;
19278;SDS011;9773;47.062;15.446;2024-02-21T13:40:35;3.90;;;1.40;;
19278;SDS011;9773;47.062;15.446;2024-02-21T13:43:01;1.30;;;1.30;;
19278;SDS011;9773;47.062;15.446;2024-02-21T13:45:27;1.60;;;1.50;;
19278;SDS011;9773;47.062;15.446;2024-02-21T13:47:52;1.53;;;1.43;;
19278;SDS011;9773;47.062;15.446;2024-02-21T13:50:19;1.40;;;1.40;;
19278;SDS011;9773;47.062;15.446;2024-02-21T13:52:46;1.57;;;1.50;;
19278;SDS011;9773;47.062;15.446;2024-02-21T13:55:12;1.60;;;1.50;;
19278;SDS011;9773;47.062;15.446;2024-02-21T13:57:38;1.33;;;1.30;;
19278;SDS011;9773;47.062;15.446;2024-02-21T14:00:04;1.20;;;1.20;;
19278;SDS011;9773;47.062;15.446;2024-02-21T14:02:30;3.83;;;3.50;;
19278;SDS011;9773;47.062;15.446;2024-02-21T14:04:56;2.03;;;1.90;;
19278;SDS011;9773;47.062;15.446;2024-02-21T14:07:22;5.93;;;1.67;;
19278;SDS011;9773;47.062;15.446;2024-02-21T14:09:48;1.40;;;1.40;;
19278;SDS011;9773;47.062;15.446;2024-02-21T14:12:15;2.33;;;1.63;;
19278;SDS011;9773;47.062;15.446;2024-02-21T14:14:43;1.70;;;1.60;;
19278;SDS011;9773;47.062;15.446;2024-02-21T14:17:09;1.40;;;1.30;;
19278;SDS011;9773;47.062;15.446;2024-02-21T14:19:35;3.03;;;1.30;;
19278;SDS011;9773;47.062;15.446;2024-02-21T14:22:00;1.53;;;1.43;;
19278;SDS011;9773;47.062;15.446;2024-02-21T14:24:27;4.43;;;1.23;;
19278;SDS011;9773;47.062;15.446;2024-02-21T14:26:53;1.77;;;1.67;;
19278;SDS011;9773;47.062;15.446;2024-02-21T14:29:20;1.87;;;1.77;;
19278;SDS011;9773;47.062;15.446;2024-02-21T14:31:46;1.87;;;1.77;;
19278;SDS011;9773;47.062;15.446;2024-02-21T14:34:12;2.37;;;1.30;;
19278;SDS011;9773;47.062;15.446;2024-02-21T14:36:38;1.80;;;1.70;;
19278;SDS011;9773;47.062;15.446;2024-02-21T14:39:05;1.50;;;1.40;;
19278;SDS011;9773;47.062;15.446;2024-02-21T14:41:31;1.80;;;1.70;;
19278;SDS011;9773;47.062;15.446;2024-02-21T14:43:57;1.80;;;1.57;;
19278;SDS011;9773;47.062;15.446;2024-02-21T14:46:25;1.97;;;1.77;;
19278;SDS011;9773;47.062;15.446;2024-02-21T14:48:53;2.97;;;2.40;;
19278;SDS011;9773;47.062;15.446;2024-02-21T14:51:20;1.77;;;1.63;;
19278;SDS011;9773;47.062;15.446;2024-02-21T14:53:46;2.53;;;2.17;;